sensor_id;sensor_type;location;lat;lon;timestamp;P1;durP1;ratioP1;P2;durP2;ratioP2
25199;SDS011;33094;48.782;9.162;2022-11-27T00:01:11;45.03;;;23.60;;
25199;SDS011;33094;48.782;9.162;2022-11-27T00:03:38;44.15;;;25.70;;
25199;SDS011;33094;48.782;9.162;2022-11-27T00:06:04;48.13;;;26.27;;
25199;SDS011;33094;48.782;9.162;2022-11-27T00:08:30;47.97;;;24.45;;
25199;SDS011;33094;48.782;9.162;2022-11-27T00:10:56;47.00;;;26.38;;
25199;SDS011;33094;48.782;9.162;2022-11-27T00:13:21;47.80;;;27.08;;
25199;SDS011;33094;48.782;9.162;2022-11-27T00:15:47;48.90;;;26.25;;
25199;SDS011;33094;48.782;9.162;2022-11-27T00:18:13;47.00;;;27.08;;
25199;SDS011;33094;48.782;9.162;2022-11-27T00:20:38;52.80;;;25.92;;
25199;SDS011;33094;48.782;9.162;2022-11-27T00:23:04;50.45;;;26.20;;
25199;SDS011;33094;48.782;9.162;2022-11-27T00:25:30;44.78;;;23.10;;
25199;SDS011;33094;48.782;9.162;2022-11-27T00:27:56;47.17;;;22.88;;
25199;SDS011;33094;48.782;9.162;2022-11-27T00:30:22;41.53;;;22.75;;
25199;SDS011;33094;48.782;9.162;2022-11-27T00:32:47;43.92;;;23.83;;
25199;SDS011;33094;48.782;9.162;2022-11-27T00:35:13;46.55;;;22.38;;
25199;SDS011;33094;48.782;9.162;2022-11-27T00:37:38;42.00;;;23.63;;
25199;SDS011;33094;48.782;9.162;2022-11-27T00:40:04;41.65;;;23.55;;
25199;SDS011;33094;48.782;9.162;2022-11-27T00:42:30;40.67;;;21.60;;
25199;SDS011;33094;48.782;9.162;2022-11-27T00:44:56;41.65;;;22.33;;
25199;SDS011;33094;48.782;9.162;2022-11-27T00:47:21;36.58;;;21.25;;
25199;SDS011;33094;48.782;9.162;2022-11-27T00:49:47;35.13;;;20.05;;
25199;SDS011;33094;48.782;9.162;2022-11-27T00:52:12;42.63;;;23.65;;
25199;SDS011;33094;48.782;9.162;2022-11-27T00:54:38;35.72;;;20.80;;
25199;SDS011;33094;48.782;9.162;2022-11-27T00:57:04;38.38;;;20.23;;
25199;SDS011;33094;48.782;9.162;2022-11-27T00:59:29;36.72;;;20.10;;
25199;SDS011;33094;48.782;9.162;2022-11-27T01:01:55;42.78;;;23.30;;
25199;SDS011;33094;48.782;9.162;2022-11-27T01:04:20;34.40;;;21.13;;
25199;SDS011;33094;48.782;9.162;2022-11-27T01:06:46;38.25;;;21.83;;
25199;SDS011;33094;48.782;9.162;2022-11-27T01:09:12;30.55;;;20.92;;
25199;SDS011;33094;48.782;9.162;2022-11-27T01:11:39;38.00;;;21.67;;
25199;SDS011;33094;48.782;9.162;2022-11-27T01:14:07;41.00;;;22.10;;
25199;SDS011;33094;48.782;9.162;2022-11-27T01:16:39;47.45;;;24.25;;
25199;SDS011;33094;48.782;9.162;2022-11-27T01:19:04;51.85;;;24.33;;
25199;SDS011;33094;48.782;9.162;2022-11-27T01:21:31;44.38;;;25.08;;
25199;SDS011;33094;48.782;9.162;2022-11-27T01:26:23;42.95;;;23.35;;
25199;SDS011;33094;48.782;9.162;2022-11-27T01:28:50;39.60;;;22.73;;
25199;SDS011;33094;48.782;9.162;2022-11-27T01:31:18;38.35;;;21.77;;
25199;SDS011;33094;48.782;9.162;2022-11-27T01:33:47;38.30;;;21.15;;
25199;SDS011;33094;48.782;9.162;2022-11-27T01:36:17;40.92;;;20.88;;
25199;SDS011;33094;48.782;9.162;2022-11-27T01:38:42;38.13;;;20.15;;
25199;SDS011;33094;48.782;9.162;2022-11-27T01:41:18;38.08;;;20.83;;
25199;SDS011;33094;48.782;9.162;2022-11-27T01:43:53;33.67;;;19.60;;
25199;SDS011;33094;48.782;9.162;2022-11-27T01:46:43;33.85;;;19.15;;
25199;SDS011;33094;48.782;9.162;2022-11-27T01:49:22;31.70;;;18.25;;
25199;SDS011;33094;48.782;9.162;2022-11-27T01:51:58;37.75;;;19.85;;
25199;SDS011;33094;48.782;9.162;2022-11-27T01:54:44;33.28;;;19.52;;
25199;SDS011;33094;48.782;9.162;2022-11-27T01:57:33;32.45;;;18.17;;
25199;SDS011;33094;48.782;9.162;2022-11-27T02:00:05;32.05;;;17.42;;
25199;SDS011;33094;48.782;9.162;2022-11-27T02:02:33;30.05;;;17.10;;
25199;SDS011;33094;48.782;9.162;2022-11-27T02:04:58;35.63;;;16.92;;
25199;SDS011;33094;48.782;9.162;2022-11-27T02:07:24;38.55;;;19.00;;
25199;SDS011;33094;48.782;9.162;2022-11-27T02:09:50;30.52;;;16.80;;
25199;SDS011;33094;48.782;9.162;2022-11-27T02:12:20;29.73;;;16.45;;
25199;SDS011;33094;48.782;9.162;2022-11-27T02:15:08;27.73;;;16.67;;
25199;SDS011;33094;48.782;9.162;2022-11-27T02:33:55;33.00;;;17.27;;
25199;SDS011;33094;48.782;9.162;2022-11-27T02:36:28;29.45;;;15.98;;
25199;SDS011;33094;48.782;9.162;2022-11-27T02:39:01;26.48;;;16.60;;
25199;SDS011;33094;48.782;9.162;2022-11-27T02:41:46;27.88;;;14.90;;
25199;SDS011;33094;48.782;9.162;2022-11-27T02:44:19;24.02;;;15.00;;
25199;SDS011;33094;48.782;9.162;2022-11-27T02:46:47;26.88;;;16.73;;
25199;SDS011;33094;48.782;9.162;2022-11-27T02:49:15;30.85;;;15.95;;
25199;SDS011;33094;48.782;9.162;2022-11-27T02:51:44;31.63;;;16.60;;
25199;SDS011;33094;48.782;9.162;2022-11-27T02:54:19;28.83;;;16.17;;
25199;SDS011;33094;48.782;9.162;2022-11-27T02:56:49;31.00;;;15.65;;
25199;SDS011;33094;48.782;9.162;2022-11-27T02:59:16;30.90;;;17.67;;
25199;SDS011;33094;48.782;9.162;2022-11-27T03:01:45;29.42;;;16.65;;
25199;SDS011;33094;48.782;9.162;2022-11-27T03:04:17;26.85;;;16.30;;
25199;SDS011;33094;48.782;9.162;2022-11-27T03:06:49;29.48;;;16.83;;
25199;SDS011;33094;48.782;9.162;2022-11-27T03:09:30;26.75;;;14.50;;
25199;SDS011;33094;48.782;9.162;2022-11-27T03:12:02;29.13;;;16.92;;
25199;SDS011;33094;48.782;9.162;2022-11-27T03:14:29;30.45;;;15.60;;
25199;SDS011;33094;48.782;9.162;2022-11-27T03:17:17;26.83;;;15.20;;
25199;SDS011;33094;48.782;9.162;2022-11-27T03:20:00;30.65;;;15.63;;
25199;SDS011;33094;48.782;9.162;2022-11-27T03:22:45;31.60;;;16.67;;
25199;SDS011;33094;48.782;9.162;2022-11-27T03:25:11;34.80;;;15.40;;
25199;SDS011;33094;48.782;9.162;2022-11-27T03:27:42;31.73;;;15.15;;
25199;SDS011;33094;48.782;9.162;2022-11-27T03:30:12;31.60;;;16.27;;
25199;SDS011;33094;48.782;9.162;2022-11-27T03:32:38;32.47;;;17.48;;
25199;SDS011;33094;48.782;9.162;2022-11-27T03:35:05;33.50;;;18.60;;
25199;SDS011;33094;48.782;9.162;2022-11-27T03:37:33;32.97;;;19.23;;
25199;SDS011;33094;48.782;9.162;2022-11-27T03:39:59;25.17;;;15.90;;
25199;SDS011;33094;48.782;9.162;2022-11-27T03:42:44;43.40;;;19.53;;
25199;SDS011;33094;48.782;9.162;2022-11-27T03:45:37;39.35;;;21.33;;
25199;SDS011;33094;48.782;9.162;2022-11-27T03:48:34;37.22;;;21.70;;
25199;SDS011;33094;48.782;9.162;2022-11-27T03:54:50;35.78;;;21.38;;
25199;SDS011;33094;48.782;9.162;2022-11-27T03:57:27;39.47;;;21.25;;
25199;SDS011;33094;48.782;9.162;2022-11-27T03:59:57;36.47;;;20.25;;
25199;SDS011;33094;48.782;9.162;2022-11-27T04:02:30;35.63;;;21.48;;
25199;SDS011;33094;48.782;9.162;2022-11-27T04:05:15;37.03;;;20.67;;
25199;SDS011;33094;48.782;9.162;2022-11-27T04:07:41;41.05;;;21.55;;
25199;SDS011;33094;48.782;9.162;2022-11-27T04:10:07;44.13;;;21.30;;
25199;SDS011;33094;48.782;9.162;2022-11-27T04:12:33;38.78;;;21.10;;
25199;SDS011;33094;48.782;9.162;2022-11-27T04:14:59;33.30;;;20.73;;
25199;SDS011;33094;48.782;9.162;2022-11-27T04:17:24;31.73;;;19.52;;
25199;SDS011;33094;48.782;9.162;2022-11-27T04:19:50;34.90;;;20.20;;
25199;SDS011;33094;48.782;9.162;2022-11-27T04:22:16;37.13;;;20.27;;
25199;SDS011;33094;48.782;9.162;2022-11-27T04:24:42;38.58;;;19.60;;
25199;SDS011;33094;48.782;9.162;2022-11-27T04:27:07;34.88;;;19.40;;
25199;SDS011;33094;48.782;9.162;2022-11-27T04:29:33;38.60;;;20.10;;
25199;SDS011;33094;48.782;9.162;2022-11-27T04:32:00;35.88;;;19.83;;
25199;SDS011;33094;48.782;9.162;2022-11-27T04:34:26;32.45;;;20.60;;
25199;SDS011;33094;48.782;9.162;2022-11-27T04:36:52;31.90;;;19.88;;
25199;SDS011;33094;48.782;9.162;2022-11-27T04:39:17;34.78;;;19.60;;
25199;SDS011;33094;48.782;9.162;2022-11-27T04:41:43;37.58;;;19.50;;
25199;SDS011;33094;48.782;9.162;2022-11-27T04:44:10;35.50;;;20.38;;
25199;SDS011;33094;48.782;9.162;2022-11-27T04:46:36;35.30;;;19.45;;
25199;SDS011;33094;48.782;9.162;2022-11-27T04:49:02;35.38;;;18.75;;
25199;SDS011;33094;48.782;9.162;2022-11-27T04:51:28;36.60;;;19.97;;
25199;SDS011;33094;48.782;9.162;2022-11-27T04:53:54;33.28;;;19.30;;
25199;SDS011;33094;48.782;9.162;2022-11-27T04:56:19;33.30;;;19.77;;
25199;SDS011;33094;48.782;9.162;2022-11-27T04:58:45;31.80;;;19.65;;
25199;SDS011;33094;48.782;9.162;2022-11-27T05:01:10;32.85;;;19.42;;
25199;SDS011;33094;48.782;9.162;2022-11-27T05:03:36;32.45;;;19.08;;
25199;SDS011;33094;48.782;9.162;2022-11-27T05:06:02;33.88;;;20.13;;
25199;SDS011;33094;48.782;9.162;2022-11-27T05:08:28;33.58;;;19.05;;
25199;SDS011;33094;48.782;9.162;2022-11-27T05:11:01;34.70;;;19.55;;
25199;SDS011;33094;48.782;9.162;2022-11-27T05:13:35;39.50;;;20.15;;
25199;SDS011;33094;48.782;9.162;2022-11-27T05:16:01;41.72;;;19.33;;
25199;SDS011;33094;48.782;9.162;2022-11-27T05:18:27;30.30;;;18.52;;
25199;SDS011;33094;48.782;9.162;2022-11-27T05:20:59;34.05;;;20.45;;
25199;SDS011;33094;48.782;9.162;2022-11-27T05:23:27;36.10;;;20.10;;
25199;SDS011;33094;48.782;9.162;2022-11-27T05:25:53;36.78;;;19.70;;
25199;SDS011;33094;48.782;9.162;2022-11-27T05:28:19;32.90;;;19.65;;
25199;SDS011;33094;48.782;9.162;2022-11-27T05:30:45;37.47;;;20.75;;
25199;SDS011;33094;48.782;9.162;2022-11-27T05:33:11;34.58;;;19.55;;
25199;SDS011;33094;48.782;9.162;2022-11-27T05:35:37;37.10;;;20.80;;
25199;SDS011;33094;48.782;9.162;2022-11-27T05:38:02;35.55;;;19.92;;
25199;SDS011;33094;48.782;9.162;2022-11-27T05:40:28;34.58;;;19.75;;
25199;SDS011;33094;48.782;9.162;2022-11-27T05:42:53;39.80;;;21.17;;
25199;SDS011;33094;48.782;9.162;2022-11-27T05:45:19;35.58;;;21.52;;
25199;SDS011;33094;48.782;9.162;2022-11-27T05:47:45;44.45;;;21.92;;
25199;SDS011;33094;48.782;9.162;2022-11-27T05:50:10;41.60;;;22.33;;
25199;SDS011;33094;48.782;9.162;2022-11-27T05:52:36;41.75;;;22.77;;
25199;SDS011;33094;48.782;9.162;2022-11-27T05:55:02;34.72;;;22.15;;
25199;SDS011;33094;48.782;9.162;2022-11-27T05:57:28;42.38;;;24.27;;
25199;SDS011;33094;48.782;9.162;2022-11-27T05:59:55;46.83;;;23.00;;
25199;SDS011;33094;48.782;9.162;2022-11-27T06:02:21;42.33;;;23.08;;
25199;SDS011;33094;48.782;9.162;2022-11-27T06:04:47;41.83;;;23.52;;
25199;SDS011;33094;48.782;9.162;2022-11-27T06:07:13;38.92;;;21.27;;
25199;SDS011;33094;48.782;9.162;2022-11-27T06:09:38;40.50;;;23.33;;
25199;SDS011;33094;48.782;9.162;2022-11-27T06:12:04;44.10;;;22.65;;
25199;SDS011;33094;48.782;9.162;2022-11-27T06:14:30;39.30;;;22.55;;
25199;SDS011;33094;48.782;9.162;2022-11-27T06:16:56;39.03;;;22.95;;
25199;SDS011;33094;48.782;9.162;2022-11-27T06:19:22;43.78;;;22.45;;
25199;SDS011;33094;48.782;9.162;2022-11-27T06:21:48;40.22;;;22.42;;
25199;SDS011;33094;48.782;9.162;2022-11-27T06:24:13;40.05;;;21.58;;
25199;SDS011;33094;48.782;9.162;2022-11-27T06:26:39;38.35;;;21.52;;
25199;SDS011;33094;48.782;9.162;2022-11-27T06:29:04;42.08;;;22.50;;
25199;SDS011;33094;48.782;9.162;2022-11-27T06:31:31;36.95;;;18.77;;
25199;SDS011;33094;48.782;9.162;2022-11-27T06:33:57;38.88;;;20.55;;
25199;SDS011;33094;48.782;9.162;2022-11-27T06:36:25;31.90;;;19.70;;
25199;SDS011;33094;48.782;9.162;2022-11-27T06:38:56;35.85;;;19.67;;
25199;SDS011;33094;48.782;9.162;2022-11-27T06:41:22;33.42;;;20.95;;
25199;SDS011;33094;48.782;9.162;2022-11-27T06:43:50;38.47;;;20.50;;
25199;SDS011;33094;48.782;9.162;2022-11-27T06:46:17;39.88;;;20.10;;
25199;SDS011;33094;48.782;9.162;2022-11-27T06:48:45;36.28;;;20.10;;
25199;SDS011;33094;48.782;9.162;2022-11-27T06:51:13;36.58;;;20.23;;
25199;SDS011;33094;48.782;9.162;2022-11-27T06:53:42;31.75;;;18.48;;
25199;SDS011;33094;48.782;9.162;2022-11-27T06:56:09;33.05;;;18.35;;
25199;SDS011;33094;48.782;9.162;2022-11-27T06:58:38;37.05;;;19.33;;
25199;SDS011;33094;48.782;9.162;2022-11-27T07:01:06;23.35;;;14.52;;
25199;SDS011;33094;48.782;9.162;2022-11-27T07:03:33;32.30;;;18.92;;
25199;SDS011;33094;48.782;9.162;2022-11-27T07:06:02;27.50;;;18.05;;
25199;SDS011;33094;48.782;9.162;2022-11-27T07:08:29;33.92;;;17.98;;
25199;SDS011;33094;48.782;9.162;2022-11-27T07:11:01;30.02;;;18.35;;
25199;SDS011;33094;48.782;9.162;2022-11-27T07:16:01;30.57;;;18.27;;
25199;SDS011;33094;48.782;9.162;2022-11-27T07:18:28;32.58;;;18.40;;
25199;SDS011;33094;48.782;9.162;2022-11-27T07:23:20;30.10;;;18.07;;
25199;SDS011;33094;48.782;9.162;2022-11-27T07:25:46;30.50;;;16.83;;
25199;SDS011;33094;48.782;9.162;2022-11-27T07:28:11;32.50;;;18.08;;
25199;SDS011;33094;48.782;9.162;2022-11-27T07:30:37;28.30;;;17.42;;
25199;SDS011;33094;48.782;9.162;2022-11-27T07:33:02;26.65;;;16.10;;
25199;SDS011;33094;48.782;9.162;2022-11-27T07:35:28;26.95;;;15.82;;
25199;SDS011;33094;48.782;9.162;2022-11-27T07:37:54;26.92;;;16.08;;
25199;SDS011;33094;48.782;9.162;2022-11-27T07:40:19;24.05;;;15.00;;
25199;SDS011;33094;48.782;9.162;2022-11-27T07:42:45;23.55;;;15.85;;
25199;SDS011;33094;48.782;9.162;2022-11-27T07:45:11;22.25;;;13.70;;
25199;SDS011;33094;48.782;9.162;2022-11-27T07:47:37;23.42;;;14.20;;
25199;SDS011;33094;48.782;9.162;2022-11-27T07:50:03;24.35;;;14.57;;
25199;SDS011;33094;48.782;9.162;2022-11-27T07:52:32;21.75;;;14.02;;
25199;SDS011;33094;48.782;9.162;2022-11-27T07:54:59;24.13;;;14.40;;
25199;SDS011;33094;48.782;9.162;2022-11-27T07:57:25;21.77;;;13.70;;
25199;SDS011;33094;48.782;9.162;2022-11-27T08:02:17;24.70;;;15.30;;
25199;SDS011;33094;48.782;9.162;2022-11-27T08:04:43;25.30;;;15.15;;
25199;SDS011;33094;48.782;9.162;2022-11-27T08:07:09;26.55;;;16.15;;
25199;SDS011;33094;48.782;9.162;2022-11-27T08:09:34;24.75;;;15.77;;
25199;SDS011;33094;48.782;9.162;2022-11-27T08:12:00;25.13;;;15.10;;
25199;SDS011;33094;48.782;9.162;2022-11-27T08:14:25;28.60;;;16.05;;
25199;SDS011;33094;48.782;9.162;2022-11-27T08:16:51;22.50;;;13.95;;
25199;SDS011;33094;48.782;9.162;2022-11-27T08:19:17;24.60;;;14.25;;
25199;SDS011;33094;48.782;9.162;2022-11-27T08:21:42;27.80;;;14.85;;
25199;SDS011;33094;48.782;9.162;2022-11-27T08:24:08;24.15;;;14.07;;
25199;SDS011;33094;48.782;9.162;2022-11-27T08:26:34;27.20;;;15.77;;
25199;SDS011;33094;48.782;9.162;2022-11-27T08:28:59;24.95;;;16.60;;
25199;SDS011;33094;48.782;9.162;2022-11-27T08:31:25;29.75;;;18.05;;
25199;SDS011;33094;48.782;9.162;2022-11-27T08:33:50;29.55;;;17.02;;
25199;SDS011;33094;48.782;9.162;2022-11-27T08:36:16;24.80;;;16.38;;
25199;SDS011;33094;48.782;9.162;2022-11-27T08:38:42;25.48;;;15.60;;
25199;SDS011;33094;48.782;9.162;2022-11-27T08:41:07;28.33;;;16.45;;
25199;SDS011;33094;48.782;9.162;2022-11-27T08:43:34;25.38;;;14.85;;
25199;SDS011;33094;48.782;9.162;2022-11-27T08:46:02;24.73;;;14.85;;
25199;SDS011;33094;48.782;9.162;2022-11-27T08:48:29;24.30;;;14.85;;
25199;SDS011;33094;48.782;9.162;2022-11-27T08:50:54;25.75;;;15.40;;
25199;SDS011;33094;48.782;9.162;2022-11-27T08:53:20;18.58;;;13.18;;
25199;SDS011;33094;48.782;9.162;2022-11-27T08:55:45;23.75;;;14.93;;
25199;SDS011;33094;48.782;9.162;2022-11-27T08:58:11;25.88;;;16.60;;
25199;SDS011;33094;48.782;9.162;2022-11-27T09:00:37;22.05;;;13.55;;
25199;SDS011;33094;48.782;9.162;2022-11-27T09:03:03;21.70;;;13.07;;
25199;SDS011;33094;48.782;9.162;2022-11-27T09:05:29;19.43;;;12.00;;
25199;SDS011;33094;48.782;9.162;2022-11-27T09:07:56;19.77;;;13.05;;
25199;SDS011;33094;48.782;9.162;2022-11-27T09:10:23;20.15;;;12.80;;
25199;SDS011;33094;48.782;9.162;2022-11-27T09:12:50;19.15;;;11.38;;
25199;SDS011;33094;48.782;9.162;2022-11-27T09:15:15;15.93;;;10.63;;
25199;SDS011;33094;48.782;9.162;2022-11-27T09:17:42;23.67;;;13.15;;
25199;SDS011;33094;48.782;9.162;2022-11-27T09:20:08;17.15;;;11.52;;
25199;SDS011;33094;48.782;9.162;2022-11-27T09:22:34;19.35;;;10.73;;
25199;SDS011;33094;48.782;9.162;2022-11-27T09:25:00;15.47;;;10.93;;
25199;SDS011;33094;48.782;9.162;2022-11-27T09:27:26;25.52;;;10.70;;
25199;SDS011;33094;48.782;9.162;2022-11-27T09:29:52;17.02;;;11.65;;
25199;SDS011;33094;48.782;9.162;2022-11-27T09:32:18;17.43;;;11.07;;
25199;SDS011;33094;48.782;9.162;2022-11-27T09:34:43;16.90;;;12.13;;
25199;SDS011;33094;48.782;9.162;2022-11-27T09:37:09;15.73;;;11.57;;
25199;SDS011;33094;48.782;9.162;2022-11-27T09:39:35;20.48;;;12.35;;
25199;SDS011;33094;48.782;9.162;2022-11-27T09:42:02;19.90;;;12.23;;
25199;SDS011;33094;48.782;9.162;2022-11-27T09:44:31;17.40;;;12.23;;
25199;SDS011;33094;48.782;9.162;2022-11-27T09:50:18;19.02;;;11.63;;
25199;SDS011;33094;48.782;9.162;2022-11-27T09:52:53;18.25;;;11.00;;
25199;SDS011;33094;48.782;9.162;2022-11-27T09:58:15;19.48;;;13.05;;
25199;SDS011;33094;48.782;9.162;2022-11-27T10:00:51;20.98;;;13.10;;
25199;SDS011;33094;48.782;9.162;2022-11-27T10:03:19;19.05;;;11.90;;
25199;SDS011;33094;48.782;9.162;2022-11-27T10:30:46;16.20;;;11.63;;
25199;SDS011;33094;48.782;9.162;2022-11-27T10:33:36;14.60;;;11.32;;
25199;SDS011;33094;48.782;9.162;2022-11-27T10:36:12;19.95;;;12.82;;
25199;SDS011;33094;48.782;9.162;2022-11-27T10:38:40;18.92;;;11.77;;
25199;SDS011;33094;48.782;9.162;2022-11-27T10:41:10;17.63;;;11.00;;
25199;SDS011;33094;48.782;9.162;2022-11-27T10:43:48;17.85;;;11.65;;
25199;SDS011;33094;48.782;9.162;2022-11-27T10:46:20;19.75;;;10.82;;
25199;SDS011;33094;48.782;9.162;2022-11-27T10:48:57;14.40;;;10.23;;
25199;SDS011;33094;48.782;9.162;2022-11-27T10:51:24;13.18;;;10.30;;
25199;SDS011;33094;48.782;9.162;2022-11-27T10:54:00;13.05;;;10.35;;
25199;SDS011;33094;48.782;9.162;2022-11-27T10:59:21;13.25;;;10.60;;
25199;SDS011;33094;48.782;9.162;2022-11-27T11:01:51;15.25;;;10.35;;
25199;SDS011;33094;48.782;9.162;2022-11-27T11:04:26;14.00;;;10.20;;
25199;SDS011;33094;48.782;9.162;2022-11-27T11:06:53;15.55;;;10.02;;
25199;SDS011;33094;48.782;9.162;2022-11-27T11:09:21;14.30;;;10.80;;
25199;SDS011;33094;48.782;9.162;2022-11-27T11:12:07;12.30;;;10.20;;
25199;SDS011;33094;48.782;9.162;2022-11-27T11:14:52;14.55;;;10.93;;
25199;SDS011;33094;48.782;9.162;2022-11-27T11:17:26;11.80;;;9.95;;
25199;SDS011;33094;48.782;9.162;2022-11-27T11:20:11;9.80;;;8.73;;
25199;SDS011;33094;48.782;9.162;2022-11-27T11:22:47;11.15;;;8.70;;
25199;SDS011;33094;48.782;9.162;2022-11-27T11:25:17;12.20;;;9.20;;
25199;SDS011;33094;48.782;9.162;2022-11-27T11:27:44;11.65;;;8.18;;
25199;SDS011;33094;48.782;9.162;2022-11-27T11:32:47;11.73;;;8.73;;
25199;SDS011;33094;48.782;9.162;2022-11-27T11:35:31;10.05;;;8.38;;
25199;SDS011;33094;48.782;9.162;2022-11-27T11:37:59;11.75;;;8.25;;
25199;SDS011;33094;48.782;9.162;2022-11-27T11:40:31;10.90;;;7.93;;
25199;SDS011;33094;48.782;9.162;2022-11-27T11:43:03;13.23;;;9.10;;
25199;SDS011;33094;48.782;9.162;2022-11-27T11:45:33;14.88;;;9.43;;
25199;SDS011;33094;48.782;9.162;2022-11-27T11:48:19;18.42;;;9.02;;
25199;SDS011;33094;48.782;9.162;2022-11-27T11:50:53;18.45;;;11.45;;
25199;SDS011;33094;48.782;9.162;2022-11-27T11:58:51;11.88;;;7.80;;
25199;SDS011;33094;48.782;9.162;2022-11-27T12:01:28;10.93;;;7.63;;
25199;SDS011;33094;48.782;9.162;2022-11-27T12:04:14;10.20;;;7.07;;
25199;SDS011;33094;48.782;9.162;2022-11-27T12:14:01;9.93;;;6.32;;
25199;SDS011;33094;48.782;9.162;2022-11-27T12:19:01;7.70;;;5.35;;
25199;SDS011;33094;48.782;9.162;2022-11-27T12:30:22;5.47;;;4.30;;
25199;SDS011;33094;48.782;9.162;2022-11-27T12:36:05;5.18;;;3.63;;
25199;SDS011;33094;48.782;9.162;2022-11-27T12:44:14;7.25;;;4.18;;
25199;SDS011;33094;48.782;9.162;2022-11-27T12:46:55;5.38;;;4.18;;
25199;SDS011;33094;48.782;9.162;2022-11-27T12:49:27;5.65;;;3.92;;
25199;SDS011;33094;48.782;9.162;2022-11-27T12:57:38;4.85;;;3.50;;
25199;SDS011;33094;48.782;9.162;2022-11-27T13:00:05;8.88;;;4.18;;
25199;SDS011;33094;48.782;9.162;2022-11-27T13:05:36;6.60;;;4.00;;
25199;SDS011;33094;48.782;9.162;2022-11-27T13:08:07;7.88;;;4.38;;
25199;SDS011;33094;48.782;9.162;2022-11-27T13:10:48;5.80;;;3.83;;
25199;SDS011;33094;48.782;9.162;2022-11-27T13:13:21;5.53;;;3.58;;
25199;SDS011;33094;48.782;9.162;2022-11-27T13:20:52;8.18;;;4.40;;
25199;SDS011;33094;48.782;9.162;2022-11-27T13:23:20;8.23;;;4.18;;
25199;SDS011;33094;48.782;9.162;2022-11-27T13:25:50;8.20;;;4.40;;
25199;SDS011;33094;48.782;9.162;2022-11-27T13:28:21;8.35;;;4.38;;
25199;SDS011;33094;48.782;9.162;2022-11-27T13:30:54;9.63;;;4.90;;
25199;SDS011;33094;48.782;9.162;2022-11-27T13:33:29;5.80;;;4.32;;
25199;SDS011;33094;48.782;9.162;2022-11-27T13:36:04;6.22;;;4.43;;
25199;SDS011;33094;48.782;9.162;2022-11-27T13:38:33;5.32;;;4.18;;
25199;SDS011;33094;48.782;9.162;2022-11-27T13:41:02;12.13;;;5.05;;
25199;SDS011;33094;48.782;9.162;2022-11-27T13:43:38;5.93;;;4.30;;
25199;SDS011;33094;48.782;9.162;2022-11-27T13:46:28;7.80;;;4.80;;
25199;SDS011;33094;48.782;9.162;2022-11-27T13:48:54;8.02;;;4.55;;
25199;SDS011;33094;48.782;9.162;2022-11-27T13:54:14;8.98;;;5.35;;
25199;SDS011;33094;48.782;9.162;2022-11-27T13:56:44;7.93;;;4.90;;
25199;SDS011;33094;48.782;9.162;2022-11-27T14:02:06;6.68;;;4.68;;
25199;SDS011;33094;48.782;9.162;2022-11-27T14:04:33;8.48;;;4.97;;
25199;SDS011;33094;48.782;9.162;2022-11-27T14:07:01;12.05;;;5.53;;
25199;SDS011;33094;48.782;9.162;2022-11-27T14:09:46;9.93;;;5.22;;
25199;SDS011;33094;48.782;9.162;2022-11-27T14:12:16;10.45;;;5.75;;
25199;SDS011;33094;48.782;9.162;2022-11-27T14:15:03;12.98;;;5.63;;
25199;SDS011;33094;48.782;9.162;2022-11-27T14:17:41;11.45;;;5.95;;
25199;SDS011;33094;48.782;9.162;2022-11-27T14:22:48;7.85;;;4.95;;
25199;SDS011;33094;48.782;9.162;2022-11-27T14:27:59;9.60;;;5.40;;
25199;SDS011;33094;48.782;9.162;2022-11-27T14:30:50;9.10;;;5.07;;
25199;SDS011;33094;48.782;9.162;2022-11-27T14:33:23;10.00;;;5.70;;
25199;SDS011;33094;48.782;9.162;2022-11-27T14:35:50;7.95;;;5.95;;
25199;SDS011;33094;48.782;9.162;2022-11-27T14:38:17;11.48;;;6.70;;
25199;SDS011;33094;48.782;9.162;2022-11-27T14:40:43;9.80;;;6.18;;
25199;SDS011;33094;48.782;9.162;2022-11-27T14:43:18;11.40;;;6.80;;
25199;SDS011;33094;48.782;9.162;2022-11-27T14:45:54;9.88;;;6.55;;
25199;SDS011;33094;48.782;9.162;2022-11-27T14:49:04;9.80;;;6.65;;
25199;SDS011;33094;48.782;9.162;2022-11-27T14:51:16;12.10;;;6.38;;
25199;SDS011;33094;48.782;9.162;2022-11-27T14:53:44;13.27;;;5.78;;
25199;SDS011;33094;48.782;9.162;2022-11-27T14:56:11;7.97;;;5.35;;
25199;SDS011;33094;48.782;9.162;2022-11-27T14:58:37;12.50;;;6.27;;
25199;SDS011;33094;48.782;9.162;2022-11-27T15:01:05;8.85;;;6.22;;
25199;SDS011;33094;48.782;9.162;2022-11-27T15:03:32;9.57;;;6.00;;
25199;SDS011;33094;48.782;9.162;2022-11-27T15:06:04;12.45;;;6.00;;
25199;SDS011;33094;48.782;9.162;2022-11-27T15:08:34;9.85;;;5.90;;
25199;SDS011;33094;48.782;9.162;2022-11-27T15:11:02;10.55;;;6.97;;
25199;SDS011;33094;48.782;9.162;2022-11-27T15:13:33;14.20;;;7.25;;
25199;SDS011;33094;48.782;9.162;2022-11-27T15:18:53;9.45;;;6.72;;
25199;SDS011;33094;48.782;9.162;2022-11-27T15:21:25;10.15;;;6.32;;
25199;SDS011;33094;48.782;9.162;2022-11-27T15:23:52;8.52;;;5.47;;
25199;SDS011;33094;48.782;9.162;2022-11-27T15:26:33;10.40;;;6.63;;
25199;SDS011;33094;48.782;9.162;2022-11-27T15:29:04;10.82;;;6.30;;
25199;SDS011;33094;48.782;9.162;2022-11-27T15:34:25;12.60;;;7.83;;
25199;SDS011;33094;48.782;9.162;2022-11-27T15:42:08;11.73;;;6.00;;
25199;SDS011;33094;48.782;9.162;2022-11-27T15:44:35;10.45;;;6.75;;
25199;SDS011;33094;48.782;9.162;2022-11-27T15:47:02;11.45;;;7.35;;
25199;SDS011;33094;48.782;9.162;2022-11-27T15:49:28;11.70;;;7.70;;
25199;SDS011;33094;48.782;9.162;2022-11-27T15:51:55;12.75;;;7.30;;
25199;SDS011;33094;48.782;9.162;2022-11-27T15:54:21;8.75;;;6.47;;
25199;SDS011;33094;48.782;9.162;2022-11-27T15:56:47;14.20;;;7.70;;
25199;SDS011;33094;48.782;9.162;2022-11-27T15:59:14;11.98;;;7.60;;
25199;SDS011;33094;48.782;9.162;2022-11-27T16:01:40;12.35;;;7.18;;
25199;SDS011;33094;48.782;9.162;2022-11-27T16:04:05;15.55;;;7.75;;
25199;SDS011;33094;48.782;9.162;2022-11-27T16:06:34;14.25;;;7.80;;
25199;SDS011;33094;48.782;9.162;2022-11-27T16:09:01;12.13;;;7.22;;
25199;SDS011;33094;48.782;9.162;2022-11-27T16:11:28;15.95;;;8.20;;
25199;SDS011;33094;48.782;9.162;2022-11-27T16:13:55;17.42;;;8.77;;
25199;SDS011;33094;48.782;9.162;2022-11-27T16:16:21;12.95;;;8.35;;
25199;SDS011;33094;48.782;9.162;2022-11-27T16:18:47;13.70;;;7.47;;
25199;SDS011;33094;48.782;9.162;2022-11-27T16:21:13;17.00;;;9.02;;
25199;SDS011;33094;48.782;9.162;2022-11-27T16:23:40;23.23;;;8.70;;
25199;SDS011;33094;48.782;9.162;2022-11-27T16:26:06;17.50;;;11.60;;
25199;SDS011;33094;48.782;9.162;2022-11-27T16:28:35;12.43;;;8.23;;
25199;SDS011;33094;48.782;9.162;2022-11-27T16:31:01;14.85;;;8.88;;
25199;SDS011;33094;48.782;9.162;2022-11-27T16:33:30;13.07;;;8.27;;
25199;SDS011;33094;48.782;9.162;2022-11-27T16:36:03;13.93;;;8.23;;
25199;SDS011;33094;48.782;9.162;2022-11-27T16:38:30;15.65;;;9.60;;
25199;SDS011;33094;48.782;9.162;2022-11-27T16:40:59;11.43;;;7.57;;
25199;SDS011;33094;48.782;9.162;2022-11-27T16:43:26;14.57;;;7.97;;
25199;SDS011;33094;48.782;9.162;2022-11-27T16:45:56;13.30;;;7.88;;
25199;SDS011;33094;48.782;9.162;2022-11-27T16:48:35;11.40;;;7.70;;
25199;SDS011;33094;48.782;9.162;2022-11-27T16:51:03;11.13;;;6.95;;
25199;SDS011;33094;48.782;9.162;2022-11-27T16:53:29;11.63;;;6.57;;